createdAt,value
2023-02-14T00:01:15.530Z,23.00
2023-02-14T00:03:42.490Z,24.90
2023-02-14T00:06:13.106Z,24.27
2023-02-14T00:08:44.450Z,22.57
2023-02-14T00:11:13.599Z,22.53
2023-02-14T00:14:00.516Z,24.20
2023-02-14T00:16:27.601Z,24.83
2023-02-14T00:19:03.543Z,23.57
2023-02-14T00:21:37.065Z,24.70
2023-02-14T00:24:18.106Z,25.03
2023-02-14T00:26:46.178Z,26.63
2023-02-14T00:29:17.969Z,23.97
2023-02-14T00:31:45.579Z,28.00
2023-02-14T00:34:14.608Z,28.00
2023-02-14T00:36:42.233Z,24.50
2023-02-14T00:39:12.318Z,26.00
2023-02-14T00:41:41.706Z,26.20
2023-02-14T00:44:11.064Z,26.33
2023-02-14T00:46:38.034Z,25.00
2023-02-14T00:49:05.623Z,23.00
2023-02-14T00:51:34.005Z,23.53
2023-02-14T00:54:01.003Z,24.77
2023-02-14T00:56:28.004Z,25.30
2023-02-14T00:58:55.274Z,24.00
2023-02-14T01:01:22.561Z,24.63
2023-02-14T01:03:49.872Z,24.17
2023-02-14T01:06:16.968Z,26.73
2023-02-14T01:08:43.905Z,25.60
2023-02-14T01:11:19.571Z,22.10
2023-02-14T01:13:48.472Z,24.30
2023-02-14T01:16:20.560Z,23.33
2023-02-14T01:18:48.399Z,23.13
2023-02-14T01:21:25.142Z,25.33
2023-02-14T01:23:57.361Z,22.87
2023-02-14T01:26:26.402Z,24.33
2023-02-14T01:28:54.849Z,24.33
2023-02-14T01:31:29.085Z,24.60
2023-02-14T01:33:57.183Z,23.13
2023-02-14T01:36:39.242Z,27.30
2023-02-14T01:39:13.961Z,25.40
2023-02-14T01:41:44.246Z,25.17
2023-02-14T01:44:19.779Z,23.83
2023-02-14T01:46:46.889Z,24.47
2023-02-14T01:49:27.210Z,26.60
2023-02-14T01:52:04.381Z,23.03
2023-02-14T01:54:34.403Z,23.70
2023-02-14T01:57:07.128Z,25.40
2023-02-14T01:59:41.592Z,25.50
2023-02-14T02:02:09.035Z,22.70
2023-02-14T02:04:42.579Z,24.30
2023-02-14T02:07:18.005Z,22.80
2023-02-14T02:10:01.516Z,23.20
2023-02-14T02:12:30.826Z,22.73
2023-02-14T02:14:59.850Z,24.10
2023-02-14T02:17:46.453Z,24.07
2023-02-14T02:20:55.039Z,24.20
2023-02-14T02:23:55.789Z,21.80
2023-02-14T02:26:38.898Z,20.80
2023-02-14T02:29:31.891Z,21.77
2023-02-14T02:32:32.164Z,22.50
2023-02-14T02:35:34.897Z,22.30
2023-02-14T02:38:39.294Z,23.50
2023-02-14T02:41:21.176Z,23.03
2023-02-14T02:44:22.061Z,23.33
2023-02-14T02:47:09.211Z,23.60
2023-02-14T02:50:33.607Z,24.17
2023-02-14T02:53:30.868Z,22.90
2023-02-14T02:56:29.610Z,21.00
2023-02-14T02:59:05.055Z,20.70
2023-02-14T03:01:40.381Z,25.53
2023-02-14T03:04:30.800Z,25.33
2023-02-14T03:07:00.971Z,24.23
2023-02-14T03:09:27.765Z,25.00
2023-02-14T03:12:13.110Z,26.10
2023-02-14T03:14:49.016Z,25.20
2023-02-14T03:17:47.208Z,23.27
2023-02-14T03:20:24.201Z,22.33
2023-02-14T03:22:59.702Z,25.00
2023-02-14T03:25:58.306Z,25.23
2023-02-14T03:29:21.280Z,23.10
2023-02-14T03:32:56.285Z,23.87
2023-02-14T03:35:33.349Z,23.70
2023-02-14T03:38:22.499Z,24.17
2023-02-14T03:41:01.870Z,25.53
2023-02-14T03:43:31.474Z,27.50
2023-02-14T03:46:11.424Z,25.87
2023-02-14T03:48:40.802Z,26.47
2023-02-14T03:51:12.845Z,26.13
2023-02-14T03:53:46.693Z,28.37
2023-02-14T03:56:36.652Z,29.03
2023-02-14T03:59:25.917Z,29.27
2023-02-14T04:02:08.939Z,30.10
2023-02-14T04:04:43.110Z,30.07
2023-02-14T04:07:14.158Z,30.60
2023-02-14T04:09:41.075Z,31.23
2023-02-14T04:12:08.962Z,30.20
2023-02-14T04:14:36.637Z,30.43
2023-02-14T04:17:23.309Z,30.10
2023-02-14T04:19:50.405Z,30.27
2023-02-14T04:22:17.682Z,32.60
2023-02-14T04:24:44.649Z,29.20
2023-02-14T04:27:12.313Z,29.50
2023-02-14T04:29:43.442Z,29.50
2023-02-14T04:32:18.477Z,24.30
2023-02-14T04:34:45.836Z,29.60
2023-02-14T04:37:13.608Z,26.80
2023-02-14T04:39:40.515Z,29.10
2023-02-14T04:42:07.540Z,27.87
2023-02-14T04:44:34.618Z,30.27
2023-02-14T04:47:03.246Z,26.10
2023-02-14T04:49:30.444Z,27.60
2023-02-14T04:51:57.793Z,28.80
2023-02-14T04:54:24.846Z,28.47
2023-02-14T04:56:52.137Z,27.83
2023-02-14T04:59:19.354Z,27.30
2023-02-14T05:01:46.342Z,28.30
2023-02-14T05:04:13.278Z,29.67
2023-02-14T05:06:40.252Z,30.23
2023-02-14T05:09:07.334Z,30.17
2023-02-14T05:11:34.450Z,29.17
2023-02-14T05:14:01.338Z,30.63
2023-02-14T05:16:28.289Z,29.57
2023-02-14T05:18:55.206Z,35.83
2023-02-14T05:21:22.408Z,34.73
2023-02-14T05:23:49.322Z,32.53
2023-02-14T05:26:16.324Z,33.00
2023-02-14T05:28:43.235Z,33.50
2023-02-14T05:31:10.472Z,31.97
2023-02-14T05:33:37.983Z,28.80
2023-02-14T05:36:05.252Z,30.40
2023-02-14T05:38:34.018Z,28.80
2023-02-14T05:41:02.719Z,28.47
2023-02-14T05:43:30.624Z,27.40
2023-02-14T05:45:58.535Z,25.77
2023-02-14T05:48:25.717Z,25.70
2023-02-14T05:50:52.764Z,25.70
2023-02-14T05:53:19.870Z,25.50
2023-02-14T05:55:47.520Z,23.50
2023-02-14T05:58:14.556Z,24.13
2023-02-14T06:00:41.679Z,26.87
2023-02-14T06:03:09.033Z,21.57
2023-02-14T06:05:36.254Z,21.90
2023-02-14T06:08:03.230Z,25.40
2023-02-14T06:10:30.143Z,25.60
2023-02-14T06:12:57.074Z,24.20
2023-02-14T06:15:24.464Z,21.30
2023-02-14T06:17:56.496Z,23.73
2023-02-14T06:20:24.726Z,22.10
2023-02-14T06:22:52.861Z,26.33
2023-02-14T06:25:20.646Z,24.57
2023-02-14T06:27:49.277Z,24.53
2023-02-14T06:30:18.400Z,23.23
2023-02-14T06:32:45.359Z,22.73
2023-02-14T06:35:13.942Z,22.07
2023-02-14T06:37:42.353Z,25.37
2023-02-14T06:40:11.141Z,25.50
2023-02-14T06:42:39.140Z,26.30
2023-02-14T06:45:07.957Z,26.80
2023-02-14T06:47:35.312Z,30.33
2023-02-14T06:50:05.293Z,29.00
2023-02-14T06:52:34.225Z,29.50
2023-02-14T06:55:01.143Z,24.03
2023-02-14T06:57:28.408Z,26.77
2023-02-14T06:59:55.381Z,25.27
2023-02-14T07:02:24.858Z,26.13
2023-02-14T07:04:52.344Z,26.27
2023-02-14T07:07:19.376Z,27.27
2023-02-14T07:09:46.411Z,26.37
2023-02-14T07:12:13.527Z,26.67
2023-02-14T07:14:40.435Z,25.33
2023-02-14T07:17:07.437Z,30.73
2023-02-14T07:19:34.329Z,29.33
2023-02-14T07:22:01.276Z,27.60
2023-02-14T07:24:28.242Z,27.33
2023-02-14T07:26:55.164Z,25.17
2023-02-14T07:29:22.085Z,24.87
2023-02-14T07:31:49.209Z,28.60
2023-02-14T07:34:16.496Z,26.37
2023-02-14T07:36:44.396Z,25.00
2023-02-14T07:39:11.380Z,28.00
2023-02-14T07:41:38.746Z,29.53
2023-02-14T07:44:05.742Z,28.37
2023-02-14T07:46:32.687Z,27.30
2023-02-14T07:48:59.631Z,26.00
2023-02-14T07:51:26.503Z,29.67
2023-02-14T07:53:53.437Z,27.70
2023-02-14T07:56:20.646Z,26.03
2023-02-14T07:58:50.015Z,28.73
2023-02-14T08:01:18.076Z,30.83
2023-02-14T08:03:47.162Z,36.67
2023-02-14T08:06:14.090Z,29.40
2023-02-14T08:08:41.052Z,33.10
2023-02-14T08:11:08.498Z,28.90
2023-02-14T08:13:35.444Z,29.90
2023-02-14T08:16:06.030Z,27.93
2023-02-14T08:18:42.088Z,27.83
2023-02-14T08:21:11.453Z,27.20
2023-02-14T08:23:39.232Z,28.73
2023-02-14T08:26:06.514Z,27.57
2023-02-14T08:28:33.761Z,30.03
2023-02-14T08:31:02.152Z,30.30
2023-02-14T08:33:29.319Z,25.70
2023-02-14T08:35:56.289Z,25.03
2023-02-14T08:38:24.484Z,28.77
2023-02-14T08:40:51.492Z,27.37
2023-02-14T08:43:18.357Z,26.70
2023-02-14T08:45:45.324Z,25.80
2023-02-14T08:48:14.017Z,24.47
2023-02-14T08:50:41.675Z,26.50
2023-02-14T08:53:12.099Z,24.83
2023-02-14T08:55:40.011Z,25.30
2023-02-14T08:58:07.959Z,24.10
2023-02-14T09:00:35.894Z,22.90
2023-02-14T09:03:02.983Z,23.97
2023-02-14T09:05:30.185Z,25.33
2023-02-14T09:07:57.421Z,25.20
2023-02-14T09:10:25.941Z,21.87
2023-02-14T09:12:53.082Z,24.97
2023-02-14T09:15:20.393Z,24.97
2023-02-14T09:17:47.630Z,22.70
2023-02-14T09:20:16.146Z,21.77
2023-02-14T09:22:43.972Z,23.43
2023-02-14T09:25:11.611Z,23.20
2023-02-14T09:27:39.696Z,25.70
2023-02-14T09:30:09.597Z,24.77
2023-02-14T09:32:37.129Z,23.97
2023-02-14T09:35:23.239Z,23.33
2023-02-14T09:38:08.526Z,22.27
2023-02-14T09:40:35.537Z,24.03
2023-02-14T09:43:12.423Z,21.80
2023-02-14T09:45:40.738Z,21.97
2023-02-14T09:48:32.716Z,24.37
2023-02-14T09:51:13.493Z,24.03
2023-02-14T09:53:53.279Z,23.07
2023-02-14T09:57:03.494Z,21.10
2023-02-14T10:00:15.105Z,21.90
2023-02-14T10:03:00.726Z,22.17
2023-02-14T10:05:38.098Z,23.37
2023-02-14T10:08:26.281Z,21.70
2023-02-14T10:11:20.630Z,25.10
2023-02-14T10:14:23.877Z,24.90
2023-02-14T10:17:06.027Z,21.80
2023-02-14T10:19:52.642Z,22.57
2023-02-14T10:22:26.786Z,23.17
2023-02-14T10:25:09.341Z,22.60
2023-02-14T10:27:46.182Z,22.50
2023-02-14T10:30:24.699Z,23.37
2023-02-14T10:33:13.828Z,23.80
2023-02-14T10:35:55.290Z,23.83
2023-02-14T10:39:02.054Z,22.07
2023-02-14T10:41:49.445Z,22.53
2023-02-14T10:44:32.493Z,25.10
2023-02-14T10:47:32.257Z,22.27
2023-02-14T10:50:23.247Z,21.73
2023-02-14T10:53:21.255Z,19.03
2023-02-14T10:56:00.196Z,20.77
2023-02-14T10:58:32.958Z,24.20
2023-02-14T11:01:05.452Z,24.50
2023-02-14T11:03:35.514Z,23.50
2023-02-14T11:06:02.966Z,23.83
2023-02-14T11:08:36.692Z,21.80
2023-02-14T11:11:15.402Z,22.17
2023-02-14T11:13:43.151Z,20.93
2023-02-14T11:16:19.776Z,20.53
2023-02-14T11:18:46.951Z,19.07
2023-02-14T11:21:23.196Z,20.50
2023-02-14T11:23:51.693Z,21.93
2023-02-14T11:26:27.275Z,19.80
2023-02-14T11:29:10.999Z,19.60
2023-02-14T11:31:40.816Z,20.37
2023-02-14T11:34:29.086Z,18.37
2023-02-14T11:36:56.058Z,20.37
2023-02-14T11:39:35.066Z,18.70
2023-02-14T11:42:05.426Z,21.33
2023-02-14T11:44:36.979Z,21.60
2023-02-14T11:47:34.395Z,22.60
2023-02-14T11:50:29.128Z,17.97
2023-02-14T11:52:57.306Z,22.20
2023-02-14T11:55:33.972Z,19.50
2023-02-14T11:58:05.707Z,19.23
2023-02-14T12:00:34.010Z,23.30
2023-02-14T12:03:05.769Z,20.80
2023-02-14T12:05:49.188Z,21.00
2023-02-14T12:08:25.433Z,19.67
2023-02-14T12:11:24.644Z,22.77
2023-02-14T12:13:56.998Z,22.13
2023-02-14T12:16:35.834Z,24.50
2023-02-14T12:19:07.688Z,19.47
2023-02-14T12:22:01.119Z,22.90
2023-02-14T12:24:35.756Z,21.33
2023-02-14T12:27:25.786Z,20.73
2023-02-14T12:30:22.155Z,20.43
2023-02-14T12:32:56.694Z,20.63
2023-02-14T12:35:40.002Z,21.97
2023-02-14T12:38:47.004Z,21.07
2023-02-14T12:41:35.330Z,20.07
2023-02-14T12:44:22.809Z,20.60
2023-02-14T12:47:18.824Z,22.43
2023-02-14T12:50:14.804Z,18.63
2023-02-14T12:53:27.660Z,22.93
2023-02-14T12:56:24.207Z,27.03
2023-02-14T12:59:35.603Z,20.97
2023-02-14T13:02:56.249Z,24.07
2023-02-14T13:05:45.921Z,22.80
2023-02-14T13:09:04.828Z,21.57
2023-02-14T13:11:49.935Z,19.10
2023-02-14T13:14:51.985Z,20.10
2023-02-14T13:17:47.844Z,19.60
2023-02-14T13:20:32.984Z,22.03
2023-02-14T13:23:13.762Z,20.03
2023-02-14T13:25:50.994Z,24.33
2023-02-14T13:28:20.364Z,23.57
2023-02-14T13:30:47.703Z,22.90
2023-02-14T13:33:35.309Z,23.00
2023-02-14T13:36:08.247Z,20.90
2023-02-14T13:41:22.766Z,23.20
2023-02-14T13:44:02.963Z,23.27
2023-02-14T13:46:32.997Z,21.20
2023-02-14T13:49:31.701Z,23.63
2023-02-14T13:52:06.426Z,22.30
2023-02-14T13:54:46.995Z,20.87
2023-02-14T13:57:36.758Z,22.00
2023-02-14T14:00:19.173Z,21.40
2023-02-14T14:02:46.165Z,21.40
2023-02-14T14:05:35.704Z,22.13
2023-02-14T14:08:20.935Z,21.50
2023-02-14T14:10:50.702Z,21.63
2023-02-14T14:13:42.502Z,21.77
2023-02-14T14:16:25.935Z,19.20
2023-02-14T14:19:27.963Z,20.23
2023-02-14T14:22:08.658Z,23.03
2023-02-14T14:24:55.122Z,23.00
2023-02-14T14:27:27.162Z,21.57
2023-02-14T14:29:58.758Z,21.80
2023-02-14T14:32:27.462Z,21.93
2023-02-14T14:35:01.634Z,23.60
2023-02-14T14:37:33.303Z,22.23
2023-02-14T14:40:05.268Z,23.50
2023-02-14T14:42:40.272Z,22.67
2023-02-14T14:45:27.004Z,22.97
2023-02-14T14:47:58.672Z,24.80
2023-02-14T14:50:33.604Z,25.50
2023-02-14T14:53:09.698Z,24.13
2023-02-14T14:55:39.765Z,22.40
2023-02-14T14:58:33.308Z,24.27
2023-02-14T15:01:01.035Z,23.47
2023-02-14T15:03:29.629Z,24.93
2023-02-14T15:06:22.792Z,24.63
2023-02-14T15:08:51.596Z,27.10
2023-02-14T15:11:47.496Z,24.30
2023-02-14T15:14:21.507Z,24.80
2023-02-14T15:16:59.550Z,24.77
2023-02-14T15:19:44.830Z,24.73
2023-02-14T15:22:27.186Z,27.10
2023-02-14T15:24:54.110Z,25.33
2023-02-14T15:27:26.923Z,26.17
2023-02-14T15:29:57.329Z,26.10
2023-02-14T15:32:27.767Z,26.30
2023-02-14T15:34:56.014Z,28.67
2023-02-14T15:37:24.399Z,25.30
2023-02-14T15:39:56.781Z,30.60
2023-02-14T15:42:32.786Z,26.43
2023-02-14T15:45:18.339Z,26.23
2023-02-14T15:47:49.336Z,24.40
2023-02-14T15:50:27.939Z,24.80
2023-02-14T15:53:03.627Z,27.03
2023-02-14T15:55:31.548Z,25.80
2023-02-14T15:58:05.320Z,26.67
2023-02-14T16:00:34.044Z,26.27
2023-02-14T16:03:08.885Z,28.77
2023-02-14T16:05:35.795Z,27.10
2023-02-14T16:08:36.381Z,26.07
2023-02-14T16:11:13.752Z,25.50
2023-02-14T16:13:45.298Z,26.27
2023-02-14T16:16:15.348Z,26.47
2023-02-14T16:18:56.699Z,25.03
2023-02-14T16:21:33.401Z,23.30
2023-02-14T16:24:11.994Z,24.70
2023-02-14T16:26:41.883Z,21.60
2023-02-14T16:29:15.056Z,24.07
2023-02-14T16:32:15.169Z,23.77
2023-02-14T16:34:41.854Z,22.80
2023-02-14T16:37:31.849Z,24.77
2023-02-14T16:40:01.759Z,26.57
2023-02-14T16:42:28.965Z,24.63
2023-02-14T16:44:55.891Z,25.83
2023-02-14T16:47:22.909Z,24.47
2023-02-14T16:49:53.128Z,23.43
2023-02-14T16:52:24.183Z,27.50
2023-02-14T16:54:51.566Z,26.73
2023-02-14T16:57:27.807Z,23.50
2023-02-14T16:59:56.915Z,24.77
2023-02-14T17:02:28.357Z,25.10
2023-02-14T17:04:55.538Z,31.40
2023-02-14T17:07:22.907Z,29.93
2023-02-14T17:09:57.856Z,28.67
2023-02-14T17:12:31.617Z,25.50
2023-02-14T17:15:08.226Z,23.77
2023-02-14T17:17:37.413Z,23.27
2023-02-14T17:20:08.418Z,22.33
2023-02-14T17:22:37.728Z,23.73
2023-02-14T17:25:06.198Z,24.27
2023-02-14T17:27:33.138Z,24.67
2023-02-14T17:30:00.071Z,26.80
2023-02-14T17:32:27.595Z,27.70
2023-02-14T17:34:54.655Z,27.87
2023-02-14T17:37:21.622Z,26.37
2023-02-14T17:39:48.552Z,22.83
2023-02-14T17:42:15.495Z,22.00
2023-02-14T17:44:42.470Z,22.97
2023-02-14T17:47:09.374Z,24.50
2023-02-14T17:49:36.360Z,23.20
2023-02-14T17:52:03.336Z,21.83
2023-02-14T17:54:30.301Z,20.93
2023-02-14T17:56:57.275Z,21.63
2023-02-14T17:59:24.447Z,19.27
2023-02-14T18:01:51.432Z,22.37
2023-02-14T18:04:18.348Z,25.50
2023-02-14T18:06:45.307Z,23.60
2023-02-14T18:09:12.149Z,22.57
2023-02-14T18:11:41.568Z,23.73
2023-02-14T18:14:09.560Z,23.93
2023-02-14T18:16:41.074Z,23.53
2023-02-14T18:19:10.260Z,24.30
2023-02-14T18:21:40.171Z,25.10
2023-02-14T18:24:08.418Z,26.40
2023-02-14T18:26:38.428Z,24.23
2023-02-14T18:29:06.700Z,24.20
2023-02-14T18:31:40.008Z,25.20
2023-02-14T18:34:08.103Z,22.17
2023-02-14T18:36:41.985Z,26.57
2023-02-14T18:39:10.659Z,26.00
2023-02-14T18:41:37.724Z,24.90
2023-02-14T18:44:05.076Z,24.23
2023-02-14T18:46:35.907Z,26.40
2023-02-14T18:49:07.260Z,23.40
2023-02-14T18:51:39.613Z,22.43
2023-02-14T18:54:07.409Z,25.50
2023-02-14T18:56:37.692Z,24.90
2023-02-14T18:59:10.847Z,21.17
2023-02-14T19:01:45.078Z,24.57
2023-02-14T19:04:13.844Z,22.90
2023-02-14T19:06:42.758Z,23.60
2023-02-14T19:09:16.275Z,24.17
2023-02-14T19:11:44.056Z,24.30
2023-02-14T19:14:13.788Z,23.73
2023-02-14T19:16:56.119Z,25.90
2023-02-14T19:19:24.147Z,24.90
2023-02-14T19:21:52.049Z,24.57
2023-02-14T19:24:20.119Z,23.00
2023-02-14T19:26:47.129Z,22.40
2023-02-14T19:29:17.187Z,23.23
2023-02-14T19:31:48.539Z,23.50
2023-02-14T19:34:23.103Z,22.30
2023-02-14T19:36:52.727Z,25.07
2023-02-14T19:39:21.295Z,23.30
2023-02-14T19:41:49.916Z,24.80
2023-02-14T19:44:18.719Z,22.00
2023-02-14T19:46:47.769Z,24.30
2023-02-14T19:49:20.683Z,22.80
2023-02-14T19:51:51.489Z,23.77
2023-02-14T19:54:19.219Z,21.60
2023-02-14T19:56:47.173Z,26.60
2023-02-14T19:59:20.404Z,24.30
2023-02-14T20:01:53.687Z,22.97
2023-02-14T20:04:27.713Z,23.87
2023-02-14T20:06:55.557Z,26.33
2023-02-14T20:09:23.772Z,21.33
2023-02-14T20:11:54.656Z,23.30
2023-02-14T20:14:24.378Z,21.93
2023-02-14T20:16:53.763Z,24.13
2023-02-14T20:19:24.371Z,23.87
2023-02-14T20:21:52.523Z,24.30
2023-02-14T20:24:27.060Z,25.53
2023-02-14T20:26:55.935Z,23.77
2023-02-14T20:29:26.594Z,22.23
2023-02-14T20:32:01.653Z,25.37
2023-02-14T20:34:28.730Z,21.73
2023-02-14T20:36:56.199Z,24.27
2023-02-14T20:39:30.634Z,22.33
2023-02-14T20:41:58.850Z,22.87
2023-02-14T20:44:25.925Z,23.17
2023-02-14T20:46:55.579Z,21.50
2023-02-14T20:49:25.626Z,22.07
2023-02-14T20:51:52.803Z,25.77
2023-02-14T20:54:23.190Z,23.77
2023-02-14T20:56:50.899Z,22.40
2023-02-14T20:59:28.823Z,24.23
2023-02-14T21:01:58.814Z,24.07
2023-02-14T21:04:26.904Z,24.40
2023-02-14T21:06:53.930Z,25.70
2023-02-14T21:09:20.933Z,23.70
2023-02-14T21:11:47.918Z,21.97
2023-02-14T21:14:17.470Z,24.80
2023-02-14T21:16:44.801Z,24.17
2023-02-14T21:19:11.738Z,22.23
2023-02-14T21:21:38.889Z,23.17
2023-02-14T21:24:15.308Z,22.63
2023-02-14T21:26:43.168Z,22.43
2023-02-14T21:29:10.781Z,22.67
2023-02-14T21:31:37.986Z,23.80
2023-02-14T21:34:06.346Z,22.90
2023-02-14T21:36:37.954Z,23.97
2023-02-14T21:39:06.851Z,23.17
2023-02-14T21:41:35.267Z,22.50
2023-02-14T21:44:03.616Z,25.17
2023-02-14T21:46:36.075Z,22.17
2023-02-14T21:49:24.444Z,24.17
2023-02-14T21:51:51.382Z,23.67
2023-02-14T21:54:18.493Z,23.63
2023-02-14T21:56:46.114Z,21.60
2023-02-14T21:59:14.232Z,22.83
2023-02-14T22:01:43.094Z,22.73
2023-02-14T22:04:12.697Z,23.90
2023-02-14T22:06:41.985Z,25.93
2023-02-14T22:09:13.477Z,21.30
2023-02-14T22:11:40.552Z,22.97
2023-02-14T22:14:07.509Z,23.97
2023-02-14T22:16:37.173Z,22.13
2023-02-14T22:19:08.816Z,23.13
2023-02-14T22:21:35.866Z,20.50
2023-02-14T22:24:02.828Z,23.80
2023-02-14T22:26:35.592Z,20.30
2023-02-14T22:29:03.359Z,22.40
2023-02-14T22:31:36.193Z,21.00
2023-02-14T22:34:09.009Z,22.97
2023-02-14T22:36:36.103Z,21.40
2023-02-14T22:39:04.152Z,24.00
2023-02-14T22:41:31.160Z,24.03
2023-02-14T22:43:58.153Z,23.33
2023-02-14T22:46:28.818Z,22.00
2023-02-14T22:48:57.660Z,22.00
2023-02-14T22:51:34.886Z,22.50
2023-02-14T22:54:09.731Z,23.80
2023-02-14T22:56:40.601Z,23.37
2023-02-14T22:59:21.363Z,21.70
2023-02-14T23:01:51.160Z,23.20
2023-02-14T23:04:25.057Z,22.37
2023-02-14T23:06:53.720Z,20.93
2023-02-14T23:09:21.028Z,23.73
2023-02-14T23:11:49.125Z,23.20
2023-02-14T23:14:37.268Z,18.97
2023-02-14T23:17:17.603Z,20.77
2023-02-14T23:20:04.632Z,20.77
2023-02-14T23:22:41.337Z,20.60
2023-02-14T23:25:12.619Z,21.23
2023-02-14T23:27:47.576Z,21.40
2023-02-14T23:30:18.021Z,19.20
2023-02-14T23:32:46.066Z,19.13
2023-02-14T23:35:13.251Z,21.13
2023-02-14T23:37:41.115Z,20.70
2023-02-14T23:40:09.977Z,18.00
2023-02-14T23:42:37.763Z,20.57
2023-02-14T23:45:23.736Z,20.77
2023-02-14T23:47:50.785Z,20.43
2023-02-14T23:50:17.921Z,23.17
2023-02-14T23:52:44.975Z,22.00
2023-02-14T23:55:12.640Z,22.83
2023-02-14T23:57:39.766Z,21.47
